createdAt,value
2017-05-27T00:02:10.634Z,3.00
2017-05-27T00:04:38.990Z,3.04
2017-05-27T00:07:07.297Z,2.50
2017-05-27T00:09:35.602Z,3.12
2017-05-27T00:12:03.940Z,3.54
2017-05-27T00:14:32.276Z,3.72
2017-05-27T00:17:00.587Z,3.28
2017-05-27T00:19:28.949Z,2.84
2017-05-27T00:21:57.305Z,3.34
2017-05-27T00:24:25.617Z,3.30
2017-05-27T00:26:53.928Z,2.76
2017-05-27T00:29:23.135Z,3.50
2017-05-27T00:31:51.464Z,3.00
2017-05-27T00:34:19.767Z,2.70
2017-05-27T00:36:48.113Z,3.72
2017-05-27T00:39:16.420Z,3.68
2017-05-27T00:41:44.726Z,3.44
2017-05-27T00:44:13.078Z,3.38
2017-05-27T00:46:41.381Z,4.08
2017-05-27T00:49:09.682Z,3.40
2017-05-27T00:51:38.015Z,3.62
2017-05-27T00:54:06.334Z,3.26
2017-05-27T00:56:34.669Z,3.42
2017-05-27T00:59:03.739Z,3.72
2017-05-27T01:01:32.853Z,3.20
2017-05-27T01:04:01.165Z,2.82
2017-05-27T01:06:29.469Z,2.92
2017-05-27T01:08:57.830Z,2.92
2017-05-27T01:11:26.150Z,3.26
2017-05-27T01:13:54.474Z,3.90
2017-05-27T01:16:22.849Z,3.92
2017-05-27T01:18:51.213Z,3.34
2017-05-27T01:21:19.525Z,3.26
2017-05-27T01:23:47.832Z,3.36
2017-05-27T01:26:16.174Z,3.58
2017-05-27T01:28:44.478Z,4.16
2017-05-27T01:31:12.781Z,3.86
2017-05-27T01:33:41.127Z,3.62
2017-05-27T01:36:10.233Z,3.86
2017-05-27T01:38:38.548Z,3.56
2017-05-27T01:41:07.699Z,3.32
2017-05-27T01:43:36.006Z,3.28
2017-05-27T01:46:04.313Z,3.38
2017-05-27T01:48:33.425Z,2.98
2017-05-27T01:51:02.498Z,3.48
2017-05-27T01:53:30.807Z,3.76
2017-05-27T01:55:59.145Z,3.74
2017-05-27T01:58:28.218Z,2.90
2017-05-27T02:00:56.523Z,4.04
2017-05-27T02:03:25.626Z,3.54
2017-05-27T02:05:53.936Z,3.50
2017-05-27T02:08:23.046Z,3.48
2017-05-27T02:10:51.357Z,4.22
2017-05-27T02:13:19.667Z,3.68
2017-05-27T02:15:48.874Z,3.60
2017-05-27T02:18:17.175Z,3.78
2017-05-27T02:20:45.503Z,3.40
2017-05-27T02:23:13.846Z,3.40
2017-05-27T02:25:42.149Z,3.38
2017-05-27T02:28:10.480Z,3.68
2017-05-27T02:30:38.821Z,3.72
2017-05-27T02:33:07.122Z,3.56
2017-05-27T02:35:35.421Z,3.26
2017-05-27T02:38:03.763Z,3.42
2017-05-27T02:40:32.838Z,3.92
2017-05-27T02:43:01.185Z,3.34
2017-05-27T02:45:30.318Z,3.10
2017-05-27T02:47:58.622Z,3.54
2017-05-27T02:50:26.927Z,3.54
2017-05-27T02:52:55.276Z,3.50
2017-05-27T02:55:23.587Z,3.98
2017-05-27T02:57:51.896Z,3.52
2017-05-27T03:00:21.001Z,3.56
2017-05-27T03:02:49.671Z,3.18
2017-05-27T03:05:18.737Z,3.22
2017-05-27T03:07:47.850Z,3.62
2017-05-27T03:10:16.160Z,3.54
2017-05-27T03:12:44.478Z,3.02
2017-05-27T03:15:12.837Z,3.04
2017-05-27T03:17:41.139Z,3.60
2017-05-27T03:20:09.443Z,3.38
2017-05-27T03:22:38.549Z,4.18
2017-05-27T03:25:06.846Z,3.52
2017-05-27T03:27:35.166Z,3.10
2017-05-27T03:30:04.278Z,3.34
2017-05-27T03:32:32.581Z,4.00
2017-05-27T03:35:01.656Z,3.50
2017-05-27T03:37:30.763Z,3.40
2017-05-27T03:39:59.744Z,2.82
2017-05-27T03:42:28.053Z,3.40
2017-05-27T03:44:56.396Z,3.80
2017-05-27T03:47:24.704Z,3.64
2017-05-27T03:49:53.013Z,3.92
2017-05-27T03:52:21.397Z,3.40
2017-05-27T03:54:50.482Z,3.30
2017-05-27T03:57:18.790Z,3.58
2017-05-27T03:59:47.148Z,3.12
2017-05-27T04:02:15.461Z,3.36
2017-05-27T04:04:43.766Z,4.10
2017-05-27T04:07:12.176Z,3.30
2017-05-27T04:09:41.247Z,3.10
2017-05-27T04:12:09.552Z,2.82
2017-05-27T04:14:37.914Z,3.44
2017-05-27T04:17:06.225Z,3.22
2017-05-27T04:19:35.309Z,3.68
2017-05-27T04:22:03.678Z,3.30
2017-05-27T04:24:32.760Z,3.22
2017-05-27T04:27:01.066Z,3.44
2017-05-27T04:29:29.417Z,3.64
2017-05-27T04:31:57.723Z,3.68
2017-05-27T04:34:26.312Z,3.20
2017-05-27T04:36:54.665Z,3.36
2017-05-27T04:39:23.732Z,3.30
2017-05-27T04:41:52.841Z,3.70
2017-05-27T04:44:21.153Z,3.68
2017-05-27T04:46:49.910Z,3.36
2017-05-27T04:49:19.019Z,4.26
2017-05-27T04:51:47.322Z,3.40
2017-05-27T04:54:16.398Z,3.28
2017-05-27T04:56:45.551Z,3.66
2017-05-27T04:59:13.919Z,4.50
2017-05-27T05:01:42.994Z,3.70
2017-05-27T05:04:11.329Z,4.42
2017-05-27T05:06:39.638Z,3.80
2017-05-27T05:09:08.012Z,4.00
2017-05-27T05:11:37.087Z,3.98
2017-05-27T05:14:05.401Z,4.04
2017-05-27T05:16:33.752Z,3.88
2017-05-27T05:19:02.075Z,2.90
2017-05-27T05:21:30.380Z,3.58
2017-05-27T05:23:58.722Z,3.60
2017-05-27T05:26:27.789Z,3.42
2017-05-27T05:28:56.211Z,3.14
2017-05-27T05:31:25.337Z,2.54
2017-05-27T05:33:53.641Z,3.52
2017-05-27T05:36:21.949Z,3.36
2017-05-27T05:38:50.686Z,3.12
2017-05-27T05:41:18.994Z,2.76
2017-05-27T05:43:47.305Z,2.36
2017-05-27T05:46:15.692Z,3.10
2017-05-27T05:48:44.022Z,3.08
2017-05-27T05:51:13.097Z,3.00
2017-05-27T05:53:41.434Z,2.44
2017-05-27T05:56:09.740Z,2.98
2017-05-27T05:58:38.087Z,2.84
2017-05-27T06:01:07.157Z,3.08
2017-05-27T06:03:35.469Z,2.90
2017-05-27T06:06:03.813Z,3.10
2017-05-27T06:08:32.554Z,3.50
2017-05-27T06:11:00.868Z,2.90
2017-05-27T06:13:29.227Z,3.10
2017-05-27T06:15:58.305Z,2.68
2017-05-27T06:18:26.611Z,3.14
2017-05-27T06:20:55.725Z,2.80
2017-05-27T06:23:24.055Z,2.62
2017-05-27T06:25:53.133Z,2.90
2017-05-27T06:28:21.480Z,2.56
2017-05-27T06:30:50.003Z,3.22
2017-05-27T06:33:18.305Z,2.98
2017-05-27T06:35:46.650Z,3.50
2017-05-27T06:38:14.970Z,3.38
2017-05-27T06:40:44.053Z,3.70
2017-05-27T06:43:12.392Z,2.92
2017-05-27T06:45:41.466Z,2.78
2017-05-27T06:48:09.780Z,3.18
2017-05-27T06:50:38.154Z,2.60
2017-05-27T06:53:07.217Z,2.92
2017-05-27T06:55:35.521Z,2.00
2017-05-27T06:58:03.873Z,2.88
2017-05-27T07:00:32.943Z,3.38
2017-05-27T07:03:01.242Z,2.90
2017-05-27T07:05:29.584Z,2.90
2017-05-27T07:07:57.890Z,2.48
2017-05-27T07:10:26.996Z,2.70
2017-05-27T07:12:55.298Z,2.82
2017-05-27T07:15:24.372Z,3.00
2017-05-27T07:17:52.730Z,2.82
2017-05-27T07:20:21.053Z,3.10
2017-05-27T07:22:50.329Z,3.08
2017-05-27T07:25:18.663Z,3.24
2017-05-27T07:27:47.734Z,2.96
2017-05-27T07:30:16.876Z,3.00
2017-05-27T07:32:45.227Z,3.20
2017-05-27T07:35:13.529Z,3.26
2017-05-27T07:37:41.888Z,2.68
2017-05-27T07:40:10.952Z,2.76
2017-05-27T07:42:39.254Z,3.36
2017-05-27T07:45:08.382Z,2.76
2017-05-27T07:47:36.688Z,3.14
2017-05-27T07:50:04.993Z,3.20
2017-05-27T07:52:33.443Z,3.60
2017-05-27T07:55:01.749Z,3.14
2017-05-27T07:57:30.057Z,2.62
2017-05-27T07:59:58.385Z,2.88
2017-05-27T08:02:26.736Z,3.50
2017-05-27T08:04:55.807Z,2.78
2017-05-27T08:07:24.109Z,2.66
2017-05-27T08:09:52.469Z,3.06
2017-05-27T08:12:20.793Z,2.70
2017-05-27T08:14:50.750Z,3.12
2017-05-27T08:17:19.085Z,3.26
2017-05-27T08:19:48.153Z,2.90
2017-05-27T08:22:16.493Z,3.08
2017-05-27T08:24:44.802Z,3.38
2017-05-27T08:27:13.104Z,2.62
2017-05-27T08:29:42.222Z,2.96
2017-05-27T08:32:16.025Z,2.60
2017-05-27T08:34:46.033Z,2.92
2017-05-27T08:37:14.409Z,3.08
2017-05-27T08:39:42.722Z,2.66
2017-05-27T08:42:11.069Z,3.04
2017-05-27T08:44:40.134Z,3.22
2017-05-27T08:47:08.437Z,2.54
2017-05-27T08:49:36.792Z,2.48
2017-05-27T08:52:05.100Z,2.92
2017-05-27T08:54:33.413Z,3.58
2017-05-27T08:57:01.758Z,2.42
2017-05-27T08:59:30.076Z,2.70
2017-05-27T09:01:58.384Z,2.72
2017-05-27T09:04:27.500Z,2.52
2017-05-27T09:06:55.810Z,3.36
2017-05-27T09:09:24.119Z,2.82
2017-05-27T09:11:53.229Z,3.02
2017-05-27T09:14:21.550Z,2.92
2017-05-27T09:16:49.884Z,2.60
2017-05-27T09:19:18.347Z,2.82
2017-05-27T09:21:46.656Z,2.40
2017-05-27T09:24:15.072Z,2.68
2017-05-27T09:26:43.426Z,2.52
2017-05-27T09:29:11.734Z,2.12
2017-05-27T09:31:40.042Z,2.62
2017-05-27T09:34:08.450Z,2.40
2017-05-27T09:36:36.731Z,2.42
2017-05-27T09:39:05.809Z,2.50
2017-05-27T09:41:34.170Z,2.90
2017-05-27T09:44:02.492Z,3.08
2017-05-27T09:46:30.805Z,2.64
2017-05-27T09:48:59.149Z,2.26
2017-05-27T09:51:27.483Z,2.60
2017-05-27T09:53:55.794Z,2.76
2017-05-27T09:56:24.137Z,2.92
2017-05-27T09:58:53.431Z,3.00
2017-05-27T10:01:21.762Z,2.30
2017-05-27T10:03:50.892Z,2.16
2017-05-27T10:06:19.197Z,2.70
2017-05-27T10:08:47.500Z,2.80
2017-05-27T10:11:16.608Z,3.32
2017-05-27T10:13:44.923Z,2.82
2017-05-27T10:16:13.244Z,2.08
2017-05-27T10:18:42.357Z,2.50
2017-05-27T10:21:11.428Z,3.12
2017-05-27T10:23:40.536Z,2.88
2017-05-27T10:26:08.861Z,2.52
2017-05-27T10:28:37.164Z,1.84
2017-05-27T10:31:05.501Z,2.74
2017-05-27T10:33:33.806Z,2.16
2017-05-27T10:36:02.109Z,2.40
2017-05-27T10:38:31.253Z,2.40
2017-05-27T10:41:00.322Z,2.08
2017-05-27T10:43:29.420Z,1.92
2017-05-27T10:45:57.760Z,2.04
2017-05-27T10:48:26.061Z,2.18
2017-05-27T10:50:54.361Z,2.78
2017-05-27T10:53:23.468Z,2.84
2017-05-27T10:55:51.817Z,2.78
2017-05-27T10:58:20.185Z,2.62
2017-05-27T11:00:48.510Z,2.68
2017-05-27T11:03:16.825Z,2.52
2017-05-27T11:05:45.128Z,1.54
2017-05-27T11:08:13.464Z,2.14
2017-05-27T11:10:42.534Z,2.32
2017-05-27T11:13:10.874Z,2.12
2017-05-27T11:15:39.184Z,2.10
2017-05-27T11:18:08.249Z,2.00
2017-05-27T11:20:36.605Z,2.48
2017-05-27T11:23:04.921Z,2.88
2017-05-27T11:25:33.225Z,2.40
2017-05-27T11:28:01.570Z,2.00
2017-05-27T11:30:29.872Z,2.12
2017-05-27T11:32:58.184Z,2.40
2017-05-27T11:35:26.578Z,2.66
2017-05-27T11:37:55.655Z,2.30
2017-05-27T11:40:23.961Z,1.92
2017-05-27T11:42:52.458Z,1.94
2017-05-27T11:45:20.763Z,2.00
2017-05-27T11:47:49.066Z,2.26
2017-05-27T11:50:18.174Z,1.76
2017-05-27T11:52:46.481Z,2.50
2017-05-27T11:55:14.788Z,2.44
2017-05-27T11:57:43.150Z,3.06
2017-05-27T12:00:11.455Z,2.72
2017-05-27T12:02:39.760Z,1.80
2017-05-27T12:05:08.113Z,2.22
2017-05-27T12:07:36.415Z,1.98
2017-05-27T12:10:05.489Z,2.22
2017-05-27T12:12:33.829Z,1.80
2017-05-27T12:15:02.158Z,1.94
2017-05-27T12:17:31.237Z,2.16
2017-05-27T12:20:00.361Z,2.06
2017-05-27T12:22:28.669Z,1.58
2017-05-27T12:24:56.975Z,1.92
2017-05-27T12:27:25.359Z,2.50
2017-05-27T12:29:53.660Z,1.94
2017-05-27T12:32:21.968Z,2.40
2017-05-27T12:34:50.629Z,1.84
2017-05-27T12:37:19.697Z,2.16
2017-05-27T12:39:48.013Z,1.72
2017-05-27T12:42:17.140Z,1.94
2017-05-27T12:44:45.443Z,2.18
2017-05-27T12:47:13.748Z,2.08
2017-05-27T12:49:42.109Z,2.10
2017-05-27T12:52:11.185Z,1.82
2017-05-27T12:54:39.494Z,1.70
2017-05-27T12:57:08.607Z,1.92
2017-05-27T12:59:37.646Z,2.20
2017-05-27T13:02:06.774Z,1.54
2017-05-27T13:04:35.077Z,1.32
2017-05-27T13:07:03.378Z,2.28
2017-05-27T13:09:32.497Z,1.96
2017-05-27T13:12:01.584Z,1.90
2017-05-27T13:14:29.983Z,1.88
2017-05-27T13:16:59.109Z,2.04
2017-05-27T13:19:27.419Z,2.76
2017-05-27T13:21:55.728Z,2.66
2017-05-27T13:24:24.848Z,2.38
2017-05-27T13:26:54.049Z,1.64
2017-05-27T13:29:22.434Z,1.46
2017-05-27T13:31:50.795Z,1.30
2017-05-27T13:34:19.193Z,1.60
2017-05-27T13:36:47.489Z,1.46
2017-05-27T13:39:16.613Z,1.78
2017-05-27T13:41:45.970Z,2.00
2017-05-27T13:44:15.092Z,1.84
2017-05-27T13:46:43.402Z,1.80
2017-05-27T13:49:12.480Z,2.18
2017-05-27T13:51:40.852Z,1.80
2017-05-27T13:54:09.153Z,1.90
2017-05-27T13:56:37.481Z,2.22
2017-05-27T13:59:05.832Z,1.86
2017-05-27T14:01:34.140Z,1.76
2017-05-27T14:04:02.445Z,2.06
2017-05-27T14:06:30.812Z,1.72
2017-05-27T14:08:59.123Z,2.04
2017-05-27T14:11:27.442Z,2.04
2017-05-27T14:13:55.798Z,1.92
2017-05-27T14:16:24.106Z,2.26
2017-05-27T14:18:52.424Z,1.98
2017-05-27T14:21:20.845Z,1.82
2017-05-27T14:23:49.150Z,1.80
2017-05-27T14:26:17.456Z,1.84
2017-05-27T14:28:45.806Z,2.22
2017-05-27T14:31:14.891Z,2.08
2017-05-27T14:33:43.200Z,2.46
2017-05-27T14:36:11.579Z,1.80
2017-05-27T14:38:39.895Z,1.76
2017-05-27T14:41:08.206Z,2.20
2017-05-27T14:43:36.559Z,1.88
2017-05-27T14:46:05.633Z,1.90
2017-05-27T14:48:33.938Z,2.16
2017-05-27T14:51:02.282Z,2.36
2017-05-27T14:53:30.586Z,1.86
2017-05-27T14:55:58.889Z,2.04
2017-05-27T14:58:27.227Z,1.60
2017-05-27T15:00:56.296Z,2.00
2017-05-27T15:03:24.600Z,1.90
2017-05-27T15:05:53.719Z,1.76
2017-05-27T15:08:22.023Z,2.22
2017-05-27T15:10:51.100Z,2.16
2017-05-27T15:13:19.446Z,2.28
2017-05-27T15:15:48.514Z,2.06
2017-05-27T15:18:16.815Z,2.16
2017-05-27T15:20:45.961Z,2.06
2017-05-27T15:23:15.047Z,2.02
2017-05-27T15:25:43.364Z,2.44
2017-05-27T15:28:11.721Z,3.20
2017-05-27T15:30:40.792Z,2.62
2017-05-27T15:33:09.103Z,2.72
2017-05-27T15:35:37.445Z,2.60
2017-05-27T15:38:05.755Z,2.36
2017-05-27T15:40:34.875Z,2.56
2017-05-27T15:43:03.181Z,2.32
2017-05-27T15:45:31.486Z,2.90
2017-05-27T15:47:59.864Z,2.28
2017-05-27T15:50:28.178Z,2.22
2017-05-27T15:52:56.476Z,2.44
2017-05-27T15:55:25.593Z,2.08
2017-05-27T15:57:53.913Z,2.04
2017-05-27T16:00:22.990Z,2.90
2017-05-27T16:02:51.343Z,2.32
2017-05-27T16:05:19.655Z,2.64
2017-05-27T16:07:48.734Z,2.24
2017-05-27T16:10:17.095Z,4.82
2017-05-27T16:12:45.433Z,3.12
2017-05-27T16:15:14.536Z,15.80
2017-05-27T16:17:42.911Z,3.06
2017-05-27T16:20:11.222Z,3.72
2017-05-27T16:22:39.532Z,3.76
2017-05-27T16:25:08.645Z,3.54
2017-05-27T16:27:37.721Z,3.50
2017-05-27T16:30:06.058Z,4.18
2017-05-27T16:32:34.434Z,2.60
2017-05-27T16:35:02.741Z,3.60
2017-05-27T16:37:31.093Z,4.60
2017-05-27T16:39:59.478Z,2.68
2017-05-27T16:42:27.807Z,3.12
2017-05-27T16:44:56.276Z,2.72
2017-05-27T16:47:24.641Z,2.88
2017-05-27T16:49:52.951Z,2.14
2017-05-27T16:52:21.265Z,2.98
2017-05-27T16:54:49.617Z,3.38
2017-05-27T16:57:17.933Z,3.20
2017-05-27T16:59:46.253Z,2.82
2017-05-27T17:02:14.609Z,2.92
2017-05-27T17:04:42.918Z,3.40
2017-05-27T17:07:11.285Z,2.70
2017-05-27T17:09:40.399Z,2.88
2017-05-27T17:12:08.706Z,3.04
2017-05-27T17:14:37.017Z,2.86
2017-05-27T17:17:05.410Z,4.30
2017-05-27T17:19:33.721Z,3.10
2017-05-27T17:22:02.102Z,3.98
2017-05-27T17:24:30.456Z,3.86
2017-05-27T17:26:58.762Z,4.86
2017-05-27T17:29:27.140Z,4.28
2017-05-27T17:31:56.256Z,3.16
2017-05-27T17:34:25.347Z,3.48
2017-05-27T17:36:54.463Z,3.14
2017-05-27T17:39:22.851Z,2.82
2017-05-27T17:41:51.213Z,2.60
2017-05-27T17:44:19.516Z,2.66
2017-05-27T17:46:47.825Z,2.74
2017-05-27T17:49:16.992Z,2.46
2017-05-27T17:51:45.270Z,3.06
2017-05-27T17:54:14.341Z,2.68
2017-05-27T17:56:43.463Z,3.00
2017-05-27T17:59:12.537Z,2.98
2017-05-27T18:01:40.858Z,2.94
2017-05-27T18:04:09.973Z,3.12
2017-05-27T18:06:38.277Z,2.46
2017-05-27T18:09:06.581Z,3.10
2017-05-27T18:11:34.926Z,2.60
2017-05-27T18:14:03.286Z,3.06
2017-05-27T18:16:32.361Z,2.38
2017-05-27T18:19:00.709Z,2.84
2017-05-27T18:21:29.010Z,2.40
2017-05-27T18:23:57.323Z,3.00
2017-05-27T18:26:25.682Z,3.18
2017-05-27T18:28:53.997Z,3.02
2017-05-27T18:31:22.303Z,2.92
2017-05-27T18:33:50.646Z,2.40
2017-05-27T18:36:18.963Z,3.42
2017-05-27T18:38:48.039Z,3.44
2017-05-27T18:41:16.393Z,3.00
2017-05-27T18:43:45.478Z,3.44
2017-05-27T18:46:14.612Z,3.12
2017-05-27T18:48:42.920Z,2.58
2017-05-27T18:51:11.224Z,2.90
2017-05-27T18:53:40.336Z,3.40
2017-05-27T18:56:08.683Z,3.28
2017-05-27T18:58:37.041Z,2.64
2017-05-27T19:01:06.167Z,3.26
2017-05-27T19:03:34.512Z,3.10
2017-05-27T19:06:02.825Z,3.38
2017-05-27T19:08:31.143Z,3.40
2017-05-27T19:11:00.246Z,3.00
2017-05-27T19:13:29.317Z,3.60
2017-05-27T19:15:57.669Z,3.32
2017-05-27T19:18:25.980Z,3.28
2017-05-27T19:20:54.290Z,3.42
2017-05-27T19:23:22.632Z,2.00
2017-05-27T19:25:50.960Z,3.86
2017-05-27T19:28:19.268Z,4.18
2017-05-27T19:30:47.632Z,4.18
2017-05-27T19:33:16.701Z,4.38
2017-05-27T19:35:45.001Z,3.58
2017-05-27T19:38:14.118Z,3.48
2017-05-27T19:40:43.294Z,3.50
2017-05-27T19:43:12.397Z,4.20
2017-05-27T19:45:40.761Z,10.48
2017-05-27T19:48:09.077Z,4.34
2017-05-27T19:50:37.383Z,4.48
2017-05-27T19:53:05.709Z,3.90
2017-05-27T19:55:34.009Z,4.48
2017-05-27T19:58:02.385Z,4.40
2017-05-27T20:00:30.691Z,2.96
2017-05-27T20:02:58.995Z,3.54
2017-05-27T20:05:27.339Z,4.12
2017-05-27T20:07:56.427Z,3.58
2017-05-27T20:10:24.730Z,3.50
2017-05-27T20:12:53.086Z,4.14
2017-05-27T20:15:21.385Z,3.28
2017-05-27T20:17:49.689Z,4.18
2017-05-27T20:20:18.071Z,4.26
2017-05-27T20:22:47.140Z,3.86
2017-05-27T20:25:15.446Z,4.10
2017-05-27T20:27:43.798Z,4.74
2017-05-27T20:30:12.098Z,4.80
2017-05-27T20:32:40.411Z,4.58
2017-05-27T20:35:09.583Z,5.72
2017-05-27T20:37:37.894Z,5.64
2017-05-27T20:40:06.197Z,5.80
2017-05-27T20:42:34.650Z,5.28
2017-05-27T20:45:02.966Z,5.76
2017-05-27T20:47:31.274Z,4.84
2017-05-27T20:49:59.637Z,5.86
2017-05-27T20:52:27.986Z,5.56
2017-05-27T20:54:56.347Z,4.16
2017-05-27T20:57:24.697Z,4.10
2017-05-27T20:59:54.100Z,5.36
2017-05-27T21:02:22.442Z,5.28
2017-05-27T21:04:50.808Z,5.08
2017-05-27T21:07:19.117Z,5.36
2017-05-27T21:09:47.425Z,5.08
2017-05-27T21:12:15.801Z,4.66
2017-05-27T21:14:44.102Z,4.68
2017-05-27T21:17:12.416Z,4.78
2017-05-27T21:19:40.757Z,4.44
2017-05-27T21:22:09.065Z,4.80
2017-05-27T21:24:37.368Z,4.90
2017-05-27T21:27:05.741Z,5.80
2017-05-27T21:29:34.114Z,5.06
2017-05-27T21:32:02.411Z,5.94
2017-05-27T21:34:30.757Z,4.82
2017-05-27T21:36:59.062Z,5.58
2017-05-27T21:39:27.372Z,5.16
2017-05-27T21:41:55.705Z,5.40
2017-05-27T21:44:24.030Z,5.48
2017-05-27T21:46:52.379Z,5.36
2017-05-27T21:49:20.679Z,5.22
2017-05-27T21:51:52.492Z,5.58
2017-05-27T21:54:20.794Z,6.08
2017-05-27T21:56:49.105Z,4.52
2017-05-27T21:59:17.441Z,5.40
2017-05-27T22:01:45.751Z,5.76
2017-05-27T22:04:14.099Z,5.86
2017-05-27T22:06:42.656Z,5.68
2017-05-27T22:09:10.961Z,5.62
2017-05-27T22:11:39.366Z,5.58
2017-05-27T22:14:07.683Z,5.42
2017-05-27T22:16:35.987Z,5.12
2017-05-27T22:19:04.333Z,5.70
2017-05-27T22:21:33.401Z,5.52
2017-05-27T22:24:01.705Z,5.76
2017-05-27T22:26:30.829Z,4.92
2017-05-27T22:28:59.256Z,5.50
2017-05-27T22:31:27.558Z,5.12
2017-05-27T22:33:55.905Z,5.92
2017-05-27T22:36:24.221Z,6.52
2017-05-27T22:38:53.438Z,5.30
2017-05-27T22:41:21.806Z,5.94
2017-05-27T22:43:50.105Z,5.72
2017-05-27T22:46:18.413Z,6.46
2017-05-27T22:48:46.758Z,6.10
2017-05-27T22:51:15.110Z,6.40
2017-05-27T22:53:43.473Z,5.38
2017-05-27T22:56:11.838Z,5.80
2017-05-27T22:58:40.147Z,5.58
2017-05-27T23:01:08.477Z,5.20
2017-05-27T23:03:37.622Z,5.80
2017-05-27T23:06:05.931Z,5.10
2017-05-27T23:08:34.233Z,5.20
2017-05-27T23:11:02.602Z,5.62
2017-05-27T23:13:30.932Z,5.00
2017-05-27T23:15:59.230Z,5.20
2017-05-27T23:18:27.563Z,5.28
2017-05-27T23:20:55.863Z,5.86
2017-05-27T23:23:24.216Z,4.74
2017-05-27T23:25:52.511Z,5.96
2017-05-27T23:28:20.820Z,5.90
2017-05-27T23:30:49.185Z,5.58
2017-05-27T23:33:17.490Z,5.90
2017-05-27T23:35:46.585Z,6.50
2017-05-27T23:38:14.928Z,5.86
2017-05-27T23:40:43.234Z,6.48
2017-05-27T23:43:11.546Z,6.80
2017-05-27T23:45:39.897Z,6.76
2017-05-27T23:48:08.210Z,6.66
2017-05-27T23:50:36.520Z,7.06
2017-05-27T23:53:04.888Z,6.22
2017-05-27T23:55:33.193Z,6.56
2017-05-27T23:58:01.494Z,5.82
